DLH1058 EDDF-LFMN
Flight info
| Callsign | DLH1058 |
|---|---|
| Flight time | 1h 5m |
| Altitude | 31000 |
| Route | ANEKI2L ANEKI Y163 NATOR/N0463F390 DCT TRA DCT RIPUS DCT GERSA DCT SOSON DCT ODINA DCT ENOBA/N0389F190 Z185 BORDI |
| Aircraft | A343/H-SDE2E3FGHIJ4J5M1RWXY/LB1D1 |
Departure
| Time | 2026-04-16 11:30 |
|---|---|
| Airport | Frankfurt Main Airport (EDDF) |
Arrival
| Time | 2026-04-16 12:36 |
|---|---|
| Airport | Nice-Côte d'Azur Airport (LFMN) |
| Time | Latitude | Longitude | Altitude | Speed | Heading |
|---|---|---|---|---|---|
| 2026-04-16 11:07 | 50.04605 | 8.56781 | 360 ft | 0 kts | 294° |
| 2026-04-16 11:10 | 50.04702 | 8.56851 | 364 ft | 0 kts | 294° |
| 2026-04-16 11:20 | 50.04695 | 8.56877 | 367 ft | 4 kts | 292° |
| 2026-04-16 11:21 | 50.04684 | 8.56914 | 367 ft | 4 kts | 287° |
| 2026-04-16 11:21 | 50.04684 | 8.56949 | 366 ft | 4 kts | 229° |
| 2026-04-16 11:21 | 50.04701 | 8.56968 | 369 ft | 2 kts | 204° |
| 2026-04-16 11:21 | 50.04724 | 8.56985 | 367 ft | 4 kts | 204° |
| 2026-04-16 11:22 | 50.04749 | 8.57002 | 369 ft | 4 kts | 204° |
| 2026-04-16 11:22 | 50.04774 | 8.57020 | 368 ft | 3 kts | 204° |
| 2026-04-16 11:22 | 50.04778 | 8.57023 | 368 ft | 0 kts | 204° |
| 2026-04-16 11:24 | 50.04759 | 8.57010 | 366 ft | 9 kts | 205° |
| 2026-04-16 11:24 | 50.04666 | 8.56942 | 367 ft | 20 kts | 205° |
| 2026-04-16 11:25 | 50.04519 | 8.56871 | 368 ft | 17 kts | 192° |
| 2026-04-16 11:25 | 50.04461 | 8.56843 | 366 ft | 0 kts | 204° |
| 2026-04-16 11:25 | 50.04415 | 8.56803 | 368 ft | 0 kts | 214° |
| 2026-04-16 11:26 | 50.04411 | 8.56798 | 369 ft | 2 kts | 216° |
| 2026-04-16 11:26 | 50.04316 | 8.56649 | 370 ft | 30 kts | 236° |
| 2026-04-16 11:26 | 50.04286 | 8.56461 | 367 ft | 17 kts | 267° |
| 2026-04-16 11:26 | 50.04270 | 8.56173 | 363 ft | 33 kts | 262° |
| 2026-04-16 11:27 | 50.04204 | 8.55798 | 361 ft | 37 kts | 251° |
| 2026-04-16 11:27 | 50.04114 | 8.55427 | 360 ft | 36 kts | 249° |
| 2026-04-16 11:27 | 50.04028 | 8.55065 | 361 ft | 36 kts | 250° |
| 2026-04-16 11:27 | 50.03939 | 8.54692 | 358 ft | 37 kts | 249° |
| 2026-04-16 11:28 | 50.03835 | 8.54319 | 360 ft | 38 kts | 240° |
| 2026-04-16 11:28 | 50.03733 | 8.53948 | 356 ft | 37 kts | 249° |
| 2026-04-16 11:28 | 50.03640 | 8.53572 | 352 ft | 37 kts | 249° |
| 2026-04-16 11:28 | 50.03552 | 8.53198 | 346 ft | 37 kts | 250° |
| 2026-04-16 11:29 | 50.03462 | 8.52832 | 336 ft | 31 kts | 247° |
| 2026-04-16 11:29 | 50.03372 | 8.52605 | 335 ft | 22 kts | 204° |
| 2026-04-16 11:29 | 50.03145 | 8.52594 | 335 ft | 55 kts | 179° |
| 2026-04-16 11:29 | 50.02545 | 8.52601 | 335 ft | 115 kts | 179° |
| 2026-04-16 11:30 | 50.01589 | 8.52613 | 358 ft | 160 kts | 179° |
| 2026-04-16 11:30 | 50.00416 | 8.52629 | 798 ft | 175 kts | 181° |
| 2026-04-16 11:30 | 49.99138 | 8.52673 | 1347 ft | 195 kts | 180° |
| 2026-04-16 11:30 | 49.97685 | 8.52753 | 1748 ft | 223 kts | 180° |
| 2026-04-16 11:31 | 49.96089 | 8.52858 | 2693 ft | 230 kts | 178° |
| 2026-04-16 11:31 | 49.94506 | 8.52976 | 3922 ft | 226 kts | 179° |
| 2026-04-16 11:31 | 49.92932 | 8.53094 | 5059 ft | 227 kts | 179° |
| 2026-04-16 11:31 | 49.91330 | 8.53210 | 6109 ft | 232 kts | 180° |
| 2026-04-16 11:32 | 49.89696 | 8.53327 | 7085 ft | 238 kts | 180° |
| 2026-04-16 11:32 | 49.88034 | 8.53445 | 8084 ft | 241 kts | 180° |
| 2026-04-16 11:32 | 49.86362 | 8.53564 | 9021 ft | 245 kts | 180° |
| 2026-04-16 11:32 | 49.84648 | 8.53686 | 10002 ft | 248 kts | 180° |
| 2026-04-16 11:33 | 49.82911 | 8.53809 | 10873 ft | 252 kts | 180° |
| 2026-04-16 11:33 | 49.81142 | 8.53935 | 11719 ft | 257 kts | 180° |
| 2026-04-16 11:33 | 49.79340 | 8.54062 | 12573 ft | 261 kts | 181° |
| 2026-04-16 11:33 | 49.77507 | 8.54048 | 13414 ft | 267 kts | 187° |
| 2026-04-16 11:34 | 49.75591 | 8.53829 | 13874 ft | 287 kts | 188° |
| 2026-04-16 11:34 | 49.73524 | 8.53542 | 14218 ft | 308 kts | 188° |
| 2026-04-16 11:34 | 49.71320 | 8.53237 | 14535 ft | 328 kts | 188° |
| 2026-04-16 11:34 | 49.68981 | 8.52920 | 14856 ft | 347 kts | 188° |
| 2026-04-16 11:35 | 49.67364 | 8.52704 | 15050 ft | 359 kts | 188° |
| 2026-04-16 11:35 | 49.64809 | 8.52365 | 15410 ft | 375 kts | 188° |
| 2026-04-16 11:35 | 49.62178 | 8.52020 | 15978 ft | 384 kts | 188° |
| 2026-04-16 11:35 | 49.59490 | 8.51669 | 16662 ft | 390 kts | 188° |
| 2026-04-16 11:36 | 49.56769 | 8.51313 | 17369 ft | 395 kts | 188° |
| 2026-04-16 11:36 | 49.54017 | 8.50953 | 18083 ft | 399 kts | 188° |
| 2026-04-16 11:36 | 49.51225 | 8.50588 | 18769 ft | 404 kts | 188° |
| 2026-04-16 11:36 | 49.48402 | 8.50218 | 19382 ft | 408 kts | 188° |
| 2026-04-16 11:37 | 49.45555 | 8.49845 | 19990 ft | 413 kts | 188° |
| 2026-04-16 11:37 | 49.42681 | 8.49469 | 20579 ft | 417 kts | 188° |
| 2026-04-16 11:37 | 49.39768 | 8.49088 | 21153 ft | 422 kts | 188° |
| 2026-04-16 11:37 | 49.36861 | 8.48708 | 21746 ft | 426 kts | 189° |
| 2026-04-16 11:38 | 49.33889 | 8.48321 | 22333 ft | 430 kts | 189° |
| 2026-04-16 11:38 | 49.30895 | 8.47930 | 22921 ft | 434 kts | 189° |
| 2026-04-16 11:38 | 49.27875 | 8.47533 | 23487 ft | 438 kts | 189° |
| 2026-04-16 11:38 | 49.24829 | 8.47131 | 23994 ft | 442 kts | 189° |
| 2026-04-16 11:39 | 49.21755 | 8.46731 | 24467 ft | 445 kts | 189° |
| 2026-04-16 11:39 | 49.18655 | 8.46329 | 24866 ft | 449 kts | 189° |
| 2026-04-16 11:39 | 49.15529 | 8.45925 | 25313 ft | 452 kts | 189° |
| 2026-04-16 11:39 | 49.12382 | 8.45520 | 25781 ft | 455 kts | 189° |
| 2026-04-16 11:40 | 49.09225 | 8.45113 | 26225 ft | 457 kts | 189° |
| 2026-04-16 11:40 | 49.06065 | 8.44490 | 26660 ft | 457 kts | 195° |
| 2026-04-16 11:40 | 49.02940 | 8.43552 | 27099 ft | 458 kts | 196° |
| 2026-04-16 11:40 | 48.99819 | 8.42524 | 27512 ft | 460 kts | 197° |
| 2026-04-16 11:41 | 48.96681 | 8.41438 | 27874 ft | 463 kts | 197° |
| 2026-04-16 11:41 | 48.93575 | 8.40342 | 28262 ft | 466 kts | 197° |
| 2026-04-16 11:41 | 48.90371 | 8.39209 | 28671 ft | 468 kts | 197° |
| 2026-04-16 11:41 | 48.87221 | 8.38101 | 29058 ft | 471 kts | 197° |
| 2026-04-16 11:42 | 48.84021 | 8.36983 | 29442 ft | 473 kts | 197° |
| 2026-04-16 11:42 | 48.80799 | 8.35863 | 29821 ft | 476 kts | 197° |
| 2026-04-16 11:42 | 48.77569 | 8.34742 | 30169 ft | 478 kts | 197° |
| 2026-04-16 11:42 | 48.74316 | 8.33578 | 30438 ft | 482 kts | 198° |
| 2026-04-16 11:43 | 48.71048 | 8.32381 | 30690 ft | 485 kts | 198° |
| 2026-04-16 11:43 | 48.67761 | 8.31168 | 30993 ft | 486 kts | 198° |
| 2026-04-16 11:43 | 48.64467 | 8.29955 | 31222 ft | 487 kts | 198° |
| 2026-04-16 11:44 | 48.57962 | 8.27584 | 31252 ft | 477 kts | 198° |
| 2026-04-16 11:44 | 48.51478 | 8.25393 | 31256 ft | 480 kts | 192° |
| 2026-04-16 11:45 | 48.44793 | 8.25402 | 31259 ft | 489 kts | 177° |
| 2026-04-16 11:45 | 48.38048 | 8.26875 | 31252 ft | 490 kts | 174° |
| 2026-04-16 11:46 | 48.31319 | 8.28588 | 31259 ft | 490 kts | 174° |
| 2026-04-16 11:46 | 48.24585 | 8.30284 | 31262 ft | 490 kts | 174° |
| 2026-04-16 11:47 | 48.17845 | 8.31927 | 31330 ft | 493 kts | 174° |
| 2026-04-16 11:47 | 48.14442 | 8.32725 | 31581 ft | 495 kts | 175° |
| 2026-04-16 11:47 | 48.11022 | 8.33436 | 31888 ft | 496 kts | 176° |
| 2026-04-16 11:47 | 48.07598 | 8.34097 | 32233 ft | 496 kts | 176° |
| 2026-04-16 11:48 | 48.04166 | 8.34745 | 32587 ft | 496 kts | 176° |
| 2026-04-16 11:48 | 48.00732 | 8.35398 | 32946 ft | 496 kts | 176° |
| 2026-04-16 11:48 | 47.97305 | 8.36058 | 33296 ft | 497 kts | 176° |
| 2026-04-16 11:48 | 47.93879 | 8.36727 | 33639 ft | 497 kts | 176° |
| 2026-04-16 11:49 | 47.90455 | 8.37400 | 33959 ft | 497 kts | 176° |
| 2026-04-16 11:49 | 47.87065 | 8.38069 | 34243 ft | 498 kts | 176° |
| 2026-04-16 11:49 | 47.83634 | 8.38748 | 34535 ft | 498 kts | 176° |
| 2026-04-16 11:49 | 47.80153 | 8.39437 | 34872 ft | 497 kts | 176° |
| 2026-04-16 11:50 | 47.76781 | 8.40103 | 35194 ft | 496 kts | 176° |
| 2026-04-16 11:50 | 47.73360 | 8.40778 | 35513 ft | 495 kts | 176° |
| 2026-04-16 11:50 | 47.69948 | 8.41449 | 35794 ft | 495 kts | 176° |
| 2026-04-16 11:50 | 47.66529 | 8.42119 | 36087 ft | 494 kts | 175° |
| 2026-04-16 11:51 | 47.63118 | 8.42787 | 36371 ft | 494 kts | 175° |
| 2026-04-16 11:51 | 47.59710 | 8.43454 | 36654 ft | 494 kts | 176° |
| 2026-04-16 11:51 | 47.56300 | 8.44120 | 36911 ft | 494 kts | 176° |
| 2026-04-16 11:51 | 47.52893 | 8.44785 | 37195 ft | 494 kts | 176° |
| 2026-04-16 11:52 | 47.49488 | 8.45449 | 37462 ft | 493 kts | 176° |
| 2026-04-16 11:52 | 47.46081 | 8.46112 | 37697 ft | 494 kts | 175° |
| 2026-04-16 11:52 | 47.42675 | 8.46774 | 37938 ft | 494 kts | 175° |
| 2026-04-16 11:52 | 47.39264 | 8.47436 | 38207 ft | 494 kts | 175° |
| 2026-04-16 11:53 | 47.35861 | 8.48096 | 38481 ft | 493 kts | 175° |
| 2026-04-16 11:53 | 47.32458 | 8.48755 | 38770 ft | 493 kts | 175° |
| 2026-04-16 11:53 | 47.29060 | 8.49412 | 39015 ft | 492 kts | 175° |
| 2026-04-16 11:53 | 47.25664 | 8.50068 | 39202 ft | 492 kts | 175° |
| 2026-04-16 11:54 | 47.22252 | 8.50672 | 39260 ft | 495 kts | 177° |
| 2026-04-16 11:54 | 47.15443 | 8.51643 | 39263 ft | 493 kts | 178° |
| 2026-04-16 11:55 | 47.08613 | 8.52564 | 39252 ft | 492 kts | 178° |
| 2026-04-16 11:55 | 47.01785 | 8.53520 | 39242 ft | 493 kts | 177° |
| 2026-04-16 11:56 | 46.94942 | 8.54503 | 39251 ft | 494 kts | 177° |
| 2026-04-16 11:56 | 46.88109 | 8.55489 | 39244 ft | 493 kts | 177° |
| 2026-04-16 11:57 | 46.81329 | 8.56466 | 39245 ft | 493 kts | 177° |
| 2026-04-16 11:57 | 46.74495 | 8.57441 | 39238 ft | 492 kts | 177° |
| 2026-04-16 11:58 | 46.67684 | 8.58413 | 39227 ft | 491 kts | 176° |
| 2026-04-16 11:58 | 46.60878 | 8.59385 | 39212 ft | 491 kts | 176° |
| 2026-04-16 11:59 | 46.54080 | 8.60358 | 39209 ft | 491 kts | 176° |
| 2026-04-16 11:59 | 46.47285 | 8.61318 | 39195 ft | 491 kts | 176° |
| 2026-04-16 12:00 | 46.40524 | 8.62269 | 39174 ft | 491 kts | 176° |
| 2026-04-16 12:00 | 46.33714 | 8.63228 | 39162 ft | 491 kts | 176° |
| 2026-04-16 12:01 | 46.26915 | 8.64184 | 39147 ft | 491 kts | 176° |
| 2026-04-16 12:01 | 46.20114 | 8.65138 | 39133 ft | 491 kts | 176° |
| 2026-04-16 12:02 | 46.09908 | 8.66174 | 39125 ft | 486 kts | 188° |
| 2026-04-16 12:02 | 46.03168 | 8.65103 | 39128 ft | 487 kts | 190° |
| 2026-04-16 12:03 | 45.96511 | 8.63721 | 39137 ft | 487 kts | 191° |
| 2026-04-16 12:03 | 45.89819 | 8.62300 | 39132 ft | 486 kts | 191° |
| 2026-04-16 12:04 | 45.83123 | 8.60915 | 39128 ft | 486 kts | 190° |
| 2026-04-16 12:04 | 45.76420 | 8.59552 | 39137 ft | 486 kts | 190° |
| 2026-04-16 12:05 | 45.69712 | 8.58197 | 39130 ft | 487 kts | 190° |
| 2026-04-16 12:05 | 45.63007 | 8.56845 | 39129 ft | 486 kts | 190° |
| 2026-04-16 12:06 | 45.56302 | 8.55495 | 39157 ft | 486 kts | 190° |
| 2026-04-16 12:06 | 45.50028 | 8.54235 | 39156 ft | 486 kts | 190° |
| 2026-04-16 12:07 | 45.45072 | 8.53240 | 39148 ft | 486 kts | 190° |
| 2026-04-16 12:07 | 45.38371 | 8.51899 | 39150 ft | 487 kts | 190° |
| 2026-04-16 12:08 | 45.31666 | 8.50561 | 39143 ft | 487 kts | 190° |
| 2026-04-16 12:08 | 45.25017 | 8.49237 | 38776 ft | 483 kts | 189° |
| 2026-04-16 12:09 | 45.21671 | 8.48571 | 37992 ft | 486 kts | 189° |
| 2026-04-16 12:09 | 45.18314 | 8.47904 | 37238 ft | 489 kts | 189° |
| 2026-04-16 12:09 | 45.14938 | 8.47233 | 36532 ft | 490 kts | 189° |
| 2026-04-16 12:09 | 45.11554 | 8.46562 | 35843 ft | 491 kts | 189° |
| 2026-04-16 12:10 | 45.08166 | 8.45892 | 35165 ft | 492 kts | 190° |
| 2026-04-16 12:10 | 45.04784 | 8.45225 | 34695 ft | 487 kts | 190° |
| 2026-04-16 12:10 | 45.01438 | 8.44567 | 34142 ft | 484 kts | 190° |
| 2026-04-16 12:10 | 44.98103 | 8.43909 | 33357 ft | 485 kts | 190° |
| 2026-04-16 12:11 | 44.94752 | 8.43248 | 32502 ft | 486 kts | 190° |
| 2026-04-16 12:11 | 44.91393 | 8.42586 | 31633 ft | 488 kts | 189° |
| 2026-04-16 12:11 | 44.88012 | 8.41920 | 30749 ft | 491 kts | 189° |
| 2026-04-16 12:11 | 44.84622 | 8.41254 | 29856 ft | 492 kts | 189° |
| 2026-04-16 12:12 | 44.81230 | 8.40589 | 28902 ft | 493 kts | 189° |
| 2026-04-16 12:12 | 44.77832 | 8.39924 | 28035 ft | 492 kts | 189° |
| 2026-04-16 12:12 | 44.74446 | 8.39262 | 27245 ft | 489 kts | 189° |
| 2026-04-16 12:12 | 44.71121 | 8.38614 | 26506 ft | 486 kts | 189° |
| 2026-04-16 12:13 | 44.67782 | 8.37963 | 25788 ft | 483 kts | 189° |
| 2026-04-16 12:13 | 44.64466 | 8.37318 | 25102 ft | 479 kts | 189° |
| 2026-04-16 12:13 | 44.61172 | 8.36677 | 24456 ft | 475 kts | 189° |
| 2026-04-16 12:13 | 44.57912 | 8.36044 | 23816 ft | 471 kts | 188° |
| 2026-04-16 12:14 | 44.54679 | 8.35416 | 23105 ft | 467 kts | 188° |
| 2026-04-16 12:14 | 44.51473 | 8.34795 | 22444 ft | 462 kts | 188° |
| 2026-04-16 12:14 | 44.48310 | 8.34183 | 21829 ft | 456 kts | 188° |
| 2026-04-16 12:14 | 44.45177 | 8.33577 | 21208 ft | 451 kts | 188° |
| 2026-04-16 12:15 | 44.42126 | 8.32986 | 20607 ft | 446 kts | 188° |
| 2026-04-16 12:15 | 44.39068 | 8.32395 | 20000 ft | 442 kts | 188° |
| 2026-04-16 12:15 | 44.36038 | 8.31811 | 19399 ft | 437 kts | 188° |
| 2026-04-16 12:15 | 44.33070 | 8.31011 | 18804 ft | 432 kts | 198° |
| 2026-04-16 12:16 | 44.30347 | 8.29328 | 18158 ft | 427 kts | 214° |
| 2026-04-16 12:16 | 44.28122 | 8.26666 | 17523 ft | 418 kts | 229° |
| 2026-04-16 12:16 | 44.26264 | 8.23578 | 16941 ft | 412 kts | 234° |
| 2026-04-16 12:16 | 44.24598 | 8.20362 | 16364 ft | 407 kts | 237° |
| 2026-04-16 12:17 | 44.23029 | 8.17103 | 15797 ft | 402 kts | 238° |
| 2026-04-16 12:17 | 44.21499 | 8.13859 | 15236 ft | 398 kts | 238° |
| 2026-04-16 12:17 | 44.19978 | 8.10653 | 14674 ft | 395 kts | 237° |
| 2026-04-16 12:17 | 44.18457 | 8.07502 | 14452 ft | 386 kts | 237° |
| 2026-04-16 12:18 | 44.16956 | 8.04438 | 14438 ft | 387 kts | 237° |
| 2026-04-16 12:18 | 44.15430 | 8.01353 | 14437 ft | 387 kts | 237° |
| 2026-04-16 12:18 | 44.13898 | 7.98280 | 14440 ft | 386 kts | 236° |
| 2026-04-16 12:18 | 44.12360 | 7.95206 | 14439 ft | 387 kts | 236° |
| 2026-04-16 12:19 | 44.10826 | 7.92139 | 14438 ft | 386 kts | 236° |
| 2026-04-16 12:19 | 44.09314 | 7.89130 | 14440 ft | 370 kts | 236° |
| 2026-04-16 12:19 | 44.07874 | 7.86269 | 14445 ft | 353 kts | 236° |
| 2026-04-16 12:19 | 44.06493 | 7.83528 | 14445 ft | 338 kts | 236° |
| 2026-04-16 12:20 | 44.05171 | 7.80903 | 14438 ft | 325 kts | 236° |
| 2026-04-16 12:20 | 44.03891 | 7.78367 | 14419 ft | 316 kts | 236° |
| 2026-04-16 12:20 | 44.02247 | 7.76259 | 14434 ft | 334 kts | 211° |
| 2026-04-16 12:20 | 43.99976 | 7.75306 | 14344 ft | 354 kts | 184° |
| 2026-04-16 12:21 | 43.97546 | 7.75457 | 14180 ft | 347 kts | 173° |
| 2026-04-16 12:21 | 43.95956 | 7.75714 | 14026 ft | 348 kts | 173° |
| 2026-04-16 12:21 | 43.92738 | 7.76226 | 13752 ft | 346 kts | 173° |
| 2026-04-16 12:21 | 43.90374 | 7.76563 | 13527 ft | 344 kts | 174° |
| 2026-04-16 12:22 | 43.87987 | 7.76878 | 13267 ft | 345 kts | 174° |
| 2026-04-16 12:22 | 43.85605 | 7.77178 | 13065 ft | 341 kts | 174° |
| 2026-04-16 12:22 | 43.83243 | 7.77469 | 12837 ft | 342 kts | 174° |
| 2026-04-16 12:22 | 43.80888 | 7.77756 | 12670 ft | 336 kts | 174° |
| 2026-04-16 12:23 | 43.79349 | 7.77941 | 12443 ft | 334 kts | 174° |
| 2026-04-16 12:23 | 43.76271 | 7.78310 | 11941 ft | 331 kts | 174° |
| 2026-04-16 12:23 | 43.74758 | 7.78491 | 11695 ft | 327 kts | 174° |
| 2026-04-16 12:23 | 43.72534 | 7.78756 | 11276 ft | 312 kts | 174° |
| 2026-04-16 12:24 | 43.70416 | 7.79008 | 10804 ft | 299 kts | 174° |
| 2026-04-16 12:24 | 43.68373 | 7.79251 | 10294 ft | 290 kts | 174° |
| 2026-04-16 12:24 | 43.66373 | 7.79490 | 9780 ft | 286 kts | 174° |
| 2026-04-16 12:24 | 43.64383 | 7.79726 | 9244 ft | 290 kts | 174° |
| 2026-04-16 12:25 | 43.62352 | 7.79968 | 8723 ft | 296 kts | 174° |
| 2026-04-16 12:25 | 43.60284 | 7.80214 | 8186 ft | 300 kts | 174° |
| 2026-04-16 12:25 | 43.58195 | 7.80449 | 7664 ft | 300 kts | 176° |
| 2026-04-16 12:25 | 43.56154 | 7.80260 | 7133 ft | 289 kts | 192° |
| 2026-04-16 12:26 | 43.54358 | 7.79288 | 6794 ft | 274 kts | 213° |
| 2026-04-16 12:26 | 43.52999 | 7.77562 | 6570 ft | 262 kts | 236° |
| 2026-04-16 12:26 | 43.52260 | 7.75340 | 6425 ft | 251 kts | 259° |
| 2026-04-16 12:26 | 43.51952 | 7.73011 | 6323 ft | 243 kts | 264° |
| 2026-04-16 12:27 | 43.51733 | 7.70737 | 6213 ft | 236 kts | 265° |
| 2026-04-16 12:27 | 43.51528 | 7.68532 | 6117 ft | 229 kts | 265° |
| 2026-04-16 12:27 | 43.51327 | 7.66382 | 5982 ft | 224 kts | 265° |
| 2026-04-16 12:27 | 43.51127 | 7.64268 | 5795 ft | 222 kts | 265° |
| 2026-04-16 12:28 | 43.50927 | 7.62166 | 5596 ft | 221 kts | 265° |
| 2026-04-16 12:28 | 43.50727 | 7.60070 | 5380 ft | 220 kts | 265° |
| 2026-04-16 12:28 | 43.50527 | 7.57987 | 5200 ft | 218 kts | 264° |
| 2026-04-16 12:28 | 43.50408 | 7.55940 | 5074 ft | 212 kts | 272° |
| 2026-04-16 12:29 | 43.50644 | 7.53959 | 4854 ft | 210 kts | 290° |
| 2026-04-16 12:29 | 43.51314 | 7.52187 | 4602 ft | 208 kts | 308° |
| 2026-04-16 12:29 | 43.52353 | 7.50790 | 4237 ft | 214 kts | 326° |
| 2026-04-16 12:29 | 43.53707 | 7.49817 | 3760 ft | 227 kts | 336° |
| 2026-04-16 12:30 | 43.55236 | 7.49050 | 3253 ft | 238 kts | 348° |
| 2026-04-16 12:30 | 43.56882 | 7.48887 | 2940 ft | 237 kts | 6° |
| 2026-04-16 12:30 | 43.58496 | 7.49082 | 2696 ft | 236 kts | 358° |
| 2026-04-16 12:30 | 43.59996 | 7.48330 | 2519 ft | 228 kts | 317° |
| 2026-04-16 12:31 | 43.60737 | 7.46552 | 2601 ft | 207 kts | 280° |
| 2026-04-16 12:31 | 43.60948 | 7.44637 | 2691 ft | 201 kts | 277° |
| 2026-04-16 12:31 | 43.61365 | 7.42803 | 2780 ft | 201 kts | 297° |
| 2026-04-16 12:31 | 43.62099 | 7.41160 | 2886 ft | 201 kts | 303° |
| 2026-04-16 12:32 | 43.62902 | 7.39575 | 3015 ft | 198 kts | 304° |
| 2026-04-16 12:32 | 43.63657 | 7.38107 | 3001 ft | 179 kts | 304° |
| 2026-04-16 12:32 | 43.64354 | 7.36764 | 2853 ft | 166 kts | 304° |
| 2026-04-16 12:32 | 43.65035 | 7.35502 | 2556 ft | 164 kts | 305° |
| 2026-04-16 12:33 | 43.65729 | 7.34281 | 2208 ft | 159 kts | 308° |
| 2026-04-16 12:33 | 43.66426 | 7.33154 | 1958 ft | 149 kts | 310° |
| 2026-04-16 12:33 | 43.67105 | 7.32085 | 1740 ft | 149 kts | 309° |
| 2026-04-16 12:33 | 43.67797 | 7.30992 | 1586 ft | 153 kts | 309° |
| 2026-04-16 12:34 | 43.68503 | 7.29891 | 1370 ft | 153 kts | 309° |
| 2026-04-16 12:34 | 43.69017 | 7.28647 | 1193 ft | 144 kts | 288° |
| 2026-04-16 12:34 | 43.69220 | 7.27313 | 1084 ft | 142 kts | 268° |
| 2026-04-16 12:34 | 43.69086 | 7.25979 | 913 ft | 138 kts | 243° |
| 2026-04-16 12:35 | 43.68522 | 7.24969 | 622 ft | 130 kts | 215° |
| 2026-04-16 12:35 | 43.67863 | 7.24106 | 372 ft | 131 kts | 233° |
| 2026-04-16 12:35 | 43.67207 | 7.23185 | 183 ft | 137 kts | 226° |
| 2026-04-16 12:35 | 43.66543 | 7.22276 | 28 ft | 125 kts | 226° |
| 2026-04-16 12:36 | 43.66106 | 7.21674 | 27 ft | 62 kts | 225° |
| 2026-04-16 12:36 | 43.65834 | 7.21297 | 31 ft | 41 kts | 225° |
| 2026-04-16 12:36 | 43.65699 | 7.21113 | 26 ft | 21 kts | 225° |
| 2026-04-16 12:36 | 43.65630 | 7.21010 | 27 ft | 12 kts | 236° |
| 2026-04-16 12:37 | 43.65627 | 7.20932 | 31 ft | 9 kts | 296° |
| 2026-04-16 12:37 | 43.65728 | 7.20880 | 30 ft | 25 kts | 349° |
| 2026-04-16 12:37 | 43.65902 | 7.20841 | 29 ft | 16 kts | 352° |
| 2026-04-16 12:37 | 43.65985 | 7.20823 | 26 ft | 10 kts | 351° |
| 2026-04-16 12:38 | 43.66049 | 7.20808 | 28 ft | 7 kts | 350° |
| 2026-04-16 12:38 | 43.66070 | 7.20803 | 29 ft | 6 kts | 352° |
| 2026-04-16 12:38 | 43.66104 | 7.20797 | 25 ft | 5 kts | 353° |
| 2026-04-16 12:38 | 43.66131 | 7.20778 | 28 ft | 2 kts | 291° |
| 2026-04-16 12:39 | 43.66124 | 7.20723 | 28 ft | 6 kts | 259° |
| 2026-04-16 12:39 | 43.66121 | 7.20702 | 25 ft | 0 kts | 260° |